sensor_id;sensor_type;location;lat;lon;timestamp;pressure;altitude;pressure_sealevel;temperature;humidity
28310;BME280;15571;50.974;13.936;2023-09-19T00:00:26;99429.31;;;17.44;100.00
28310;BME280;15571;50.974;13.936;2023-09-19T00:03:28;99429.50;;;17.41;100.00
28310;BME280;15571;50.974;13.936;2023-09-19T00:06:31;99425.13;;;17.40;100.00
28310;BME280;15571;50.974;13.936;2023-09-19T00:09:33;99419.97;;;17.37;100.00
28310;BME280;15571;50.974;13.936;2023-09-19T00:12:41;99421.81;;;17.35;100.00
28310;BME280;15571;50.974;13.936;2023-09-19T00:15:45;99414.84;;;17.34;100.00
28310;BME280;15571;50.974;13.936;2023-09-19T00:18:52;99420.13;;;17.34;100.00
28310;BME280;15571;50.974;13.936;2023-09-19T00:21:54;99418.41;;;17.33;100.00
28310;BME280;15571;50.974;13.936;2023-09-19T00:24:59;99408.75;;;17.32;100.00
28310;BME280;15571;50.974;13.936;2023-09-19T00:28:03;99410.59;;;17.30;100.00
28310;BME280;15571;50.974;13.936;2023-09-19T00:31:07;99410.75;;;17.26;100.00
28310;BME280;15571;50.974;13.936;2023-09-19T00:34:10;99411.53;;;17.29;100.00
28310;BME280;15571;50.974;13.936;2023-09-19T00:37:12;99410.75;;;17.26;100.00
28310;BME280;15571;50.974;13.936;2023-09-19T00:40:15;99416.75;;;17.30;100.00
28310;BME280;15571;50.974;13.936;2023-09-19T00:43:22;99401.53;;;17.35;100.00
28310;BME280;15571;50.974;13.936;2023-09-19T00:46:24;99387.44;;;17.35;100.00
28310;BME280;15571;50.974;13.936;2023-09-19T00:49:27;99389.38;;;17.31;100.00
28310;BME280;15571;50.974;13.936;2023-09-19T00:52:33;99393.16;;;17.25;100.00
28310;BME280;15571;50.974;13.936;2023-09-19T00:55:37;99400.31;;;17.23;100.00
28310;BME280;15571;50.974;13.936;2023-09-19T00:58:41;99404.16;;;17.16;100.00
28310;BME280;15571;50.974;13.936;2023-09-19T01:01:43;99404.31;;;17.13;100.00
28310;BME280;15571;50.974;13.936;2023-09-19T01:04:46;99393.56;;;17.16;100.00
28310;BME280;15571;50.974;13.936;2023-09-19T01:07:51;99393.88;;;17.10;100.00
28310;BME280;15571;50.974;13.936;2023-09-19T01:10:59;99392.16;;;17.09;100.00
28310;BME280;15571;50.974;13.936;2023-09-19T01:14:06;99396.59;;;17.08;100.00
28310;BME280;15571;50.974;13.936;2023-09-19T01:17:14;99393.22;;;17.05;100.00
28310;BME280;15571;50.974;13.936;2023-09-19T01:20:27;99406.44;;;17.05;100.00
28310;BME280;15571;50.974;13.936;2023-09-19T01:23:40;99390.56;;;17.05;100.00
28310;BME280;15571;50.974;13.936;2023-09-19T01:26:54;99389.84;;;17.01;100.00
28310;BME280;15571;50.974;13.936;2023-09-19T01:30:08;99412.81;;;17.01;100.00
28310;BME280;15571;50.974;13.936;2023-09-19T01:33:10;99401.13;;;17.05;100.00
28310;BME280;15571;50.974;13.936;2023-09-19T01:36:15;99412.00;;;16.99;100.00
28310;BME280;15571;50.974;13.936;2023-09-19T01:39:18;99421.56;;;17.01;100.00
28310;BME280;15571;50.974;13.936;2023-09-19T01:42:24;99424.16;;;17.03;100.00
28310;BME280;15571;50.974;13.936;2023-09-19T01:45:33;99419.66;;;17.05;100.00
28310;BME280;15571;50.974;13.936;2023-09-19T01:48:41;99420.19;;;17.13;100.00
28310;BME280;15571;50.974;13.936;2023-09-19T01:51:49;99424.16;;;17.03;100.00
28310;BME280;15571;50.974;13.936;2023-09-19T01:54:57;99419.00;;;17.00;100.00
28310;BME280;15571;50.974;13.936;2023-09-19T01:58:01;99410.28;;;16.98;100.00
28310;BME280;15571;50.974;13.936;2023-09-19T02:01:07;99423.38;;;17.01;100.00
28310;BME280;15571;50.974;13.936;2023-09-19T02:04:13;99423.50;;;16.98;100.00
28310;BME280;15571;50.974;13.936;2023-09-19T02:07:15;99429.50;;;17.01;100.00
28310;BME280;15571;50.974;13.936;2023-09-19T02:10:21;99422.56;;;16.99;100.00
28310;BME280;15571;50.974;13.936;2023-09-19T02:13:24;99422.56;;;16.99;100.00
28310;BME280;15571;50.974;13.936;2023-09-19T02:16:29;99430.22;;;17.05;100.00
28310;BME280;15571;50.974;13.936;2023-09-19T02:19:31;99432.22;;;17.00;100.00
28310;BME280;15571;50.974;13.936;2023-09-19T02:22:34;99435.00;;;16.96;100.00
28310;BME280;15571;50.974;13.936;2023-09-19T02:25:36;99428.97;;;16.93;100.00
28310;BME280;15571;50.974;13.936;2023-09-19T02:28:38;99439.53;;;16.93;100.00
28310;BME280;15571;50.974;13.936;2023-09-19T02:31:45;99436.06;;;16.92;100.00
28310;BME280;15571;50.974;13.936;2023-09-19T02:34:48;99434.34;;;16.91;100.00
28310;BME280;15571;50.974;13.936;2023-09-19T02:37:54;99424.69;;;16.90;100.00
28310;BME280;15571;50.974;13.936;2023-09-19T02:40:55;99435.78;;;16.99;100.00
28310;BME280;15571;50.974;13.936;2023-09-19T02:43:57;99439.88;;;16.85;100.00
28310;BME280;15571;50.974;13.936;2023-09-19T02:50:37;99443.84;;;16.95;100.00
28310;BME280;15571;50.974;13.936;2023-09-19T02:53:42;99445.72;;;16.93;100.00
28310;BME280;15571;50.974;13.936;2023-09-19T02:56:45;99454.56;;;16.92;100.00
28310;BME280;15571;50.974;13.936;2023-09-19T02:59:47;99455.56;;;16.90;100.00
28310;BME280;15571;50.974;13.936;2023-09-19T03:02:50;99454.69;;;16.89;100.00
28310;BME280;15571;50.974;13.936;2023-09-19T03:05:53;99459.16;;;16.87;100.00
28310;BME280;15571;50.974;13.936;2023-09-19T03:08:55;99455.81;;;16.84;100.00
28310;BME280;15571;50.974;13.936;2023-09-19T03:12:00;99458.53;;;16.82;100.00
28310;BME280;15571;50.974;13.936;2023-09-19T03:15:02;99451.25;;;16.87;100.00
28310;BME280;15571;50.974;13.936;2023-09-19T03:18:05;99460.50;;;16.77;100.00
28310;BME280;15571;50.974;13.936;2023-09-19T03:21:09;99460.75;;;16.91;100.00
28310;BME280;15571;50.974;13.936;2023-09-19T03:24:15;99458.56;;;16.80;100.00
28310;BME280;15571;50.974;13.936;2023-09-19T03:27:17;99462.50;;;16.72;100.00
28310;BME280;15571;50.974;13.936;2023-09-19T03:30:22;99467.91;;;16.69;100.00
28310;BME280;15571;50.974;13.936;2023-09-19T03:33:24;99473.31;;;16.65;100.00
28310;BME280;15571;50.974;13.936;2023-09-19T03:36:27;99479.53;;;16.64;100.00
28310;BME280;15571;50.974;13.936;2023-09-19T03:39:30;99474.25;;;16.64;100.00
28310;BME280;15571;50.974;13.936;2023-09-19T03:42:32;99472.66;;;16.60;100.00
28310;BME280;15571;50.974;13.936;2023-09-19T03:45:40;99475.31;;;16.60;100.00
28310;BME280;15571;50.974;13.936;2023-09-19T03:48:42;99475.09;;;16.65;100.00
28310;BME280;15571;50.974;13.936;2023-09-19T03:51:46;99477.13;;;16.58;100.00
28310;BME280;15571;50.974;13.936;2023-09-19T03:54:48;99478.22;;;16.54;100.00
28310;BME280;15571;50.974;13.936;2023-09-19T03:57:52;99481.63;;;16.56;100.00
28310;BME280;15571;50.974;13.936;2023-09-19T04:04:19;99485.47;;;16.49;100.00
28310;BME280;15571;50.974;13.936;2023-09-19T04:07:23;99486.38;;;16.48;100.00
28310;BME280;15571;50.974;13.936;2023-09-19T04:10:27;99472.25;;;16.49;100.00
28310;BME280;15571;50.974;13.936;2023-09-19T04:13:29;99481.25;;;16.45;100.00
28310;BME280;15571;50.974;13.936;2023-09-19T04:16:31;99489.16;;;16.45;100.00
28310;BME280;15571;50.974;13.936;2023-09-19T04:19:33;99487.28;;;16.47;100.00
28310;BME280;15571;50.974;13.936;2023-09-19T04:22:39;99493.50;;;16.46;100.00
28310;BME280;15571;50.974;13.936;2023-09-19T04:25:41;99489.16;;;16.45;100.00
28310;BME280;15571;50.974;13.936;2023-09-19T04:28:43;99498.97;;;16.41;100.00
28310;BME280;15571;50.974;13.936;2023-09-19T04:31:46;99496.41;;;16.40;100.00
28310;BME280;15571;50.974;13.936;2023-09-19T04:34:51;99502.50;;;16.42;100.00
28310;BME280;15571;50.974;13.936;2023-09-19T04:37:58;99497.22;;;16.42;100.00
28310;BME280;15571;50.974;13.936;2023-09-19T04:41:00;99505.78;;;16.47;100.00
28310;BME280;15571;50.974;13.936;2023-09-19T04:44:05;99522.56;;;16.46;100.00
28310;BME280;15571;50.974;13.936;2023-09-19T04:47:07;99520.72;;;16.48;100.00
28310;BME280;15571;50.974;13.936;2023-09-19T04:50:09;99514.50;;;16.49;100.00
28310;BME280;15571;50.974;13.936;2023-09-19T04:53:15;99509.22;;;16.49;100.00
28310;BME280;15571;50.974;13.936;2023-09-19T04:56:18;99517.28;;;16.46;100.00
28310;BME280;15571;50.974;13.936;2023-09-19T04:59:21;99512.78;;;16.48;100.00
28310;BME280;15571;50.974;13.936;2023-09-19T05:02:26;99525.16;;;16.47;100.00
28310;BME280;15571;50.974;13.936;2023-09-19T05:05:33;99535.75;;;16.46;100.00
28310;BME280;15571;50.974;13.936;2023-09-19T05:08:39;99534.06;;;16.45;100.00
28310;BME280;15571;50.974;13.936;2023-09-19T05:11:44;99542.56;;;16.52;100.00
28310;BME280;15571;50.974;13.936;2023-09-19T05:14:46;99547.94;;;16.50;100.00
28310;BME280;15571;50.974;13.936;2023-09-19T05:17:48;99541.47;;;16.57;100.00
28310;BME280;15571;50.974;13.936;2023-09-19T05:20:51;99543.34;;;16.55;100.00
28310;BME280;15571;50.974;13.936;2023-09-19T05:24:02;99539.75;;;16.56;100.00
28310;BME280;15571;50.974;13.936;2023-09-19T05:27:13;99546.81;;;16.56;100.00
28310;BME280;15571;50.974;13.936;2023-09-19T05:30:17;99547.56;;;16.59;100.00
28310;BME280;15571;50.974;13.936;2023-09-19T05:33:22;99550.19;;;16.59;100.00
28310;BME280;15571;50.974;13.936;2023-09-19T05:36:24;99549.16;;;16.63;100.00
28310;BME280;15571;50.974;13.936;2023-09-19T05:39:27;99556.09;;;16.66;100.00
28310;BME280;15571;50.974;13.936;2023-09-19T05:42:29;99561.19;;;16.71;100.00
28310;BME280;15571;50.974;13.936;2023-09-19T05:45:31;99558.34;;;16.75;100.00
28310;BME280;15571;50.974;13.936;2023-09-19T05:48:34;99566.09;;;16.80;100.00
28310;BME280;15571;50.974;13.936;2023-09-19T05:51:36;99566.00;;;16.81;100.00
28310;BME280;15571;50.974;13.936;2023-09-19T05:54:39;99563.31;;;16.83;100.00
28310;BME280;15571;50.974;13.936;2023-09-19T05:57:51;99571.19;;;16.85;100.00
28310;BME280;15571;50.974;13.936;2023-09-19T06:00:58;99563.25;;;16.85;100.00
28310;BME280;15571;50.974;13.936;2023-09-19T06:04:00;99578.84;;;16.91;100.00
28310;BME280;15571;50.974;13.936;2023-09-19T06:07:03;99588.47;;;16.93;100.00
28310;BME280;15571;50.974;13.936;2023-09-19T06:10:07;99589.94;;;17.01;100.00
28310;BME280;15571;50.974;13.936;2023-09-19T06:13:12;99593.31;;;17.04;100.00
28310;BME280;15571;50.974;13.936;2023-09-19T06:16:14;99589.63;;;17.08;100.00
28310;BME280;15571;50.974;13.936;2023-09-19T06:19:17;99584.91;;;17.15;100.00
28310;BME280;15571;50.974;13.936;2023-09-19T06:22:23;99589.28;;;17.16;100.00
28310;BME280;15571;50.974;13.936;2023-09-19T06:25:27;99589.88;;;17.23;100.00
28310;BME280;15571;50.974;13.936;2023-09-19T06:28:29;99594.03;;;17.29;100.00
28310;BME280;15571;50.974;13.936;2023-09-19T06:31:31;99601.84;;;17.32;100.00
28310;BME280;15571;50.974;13.936;2023-09-19T06:34:32;99606.06;;;17.36;100.00
28310;BME280;15571;50.974;13.936;2023-09-19T06:37:34;99618.25;;;17.40;100.00
28310;BME280;15571;50.974;13.936;2023-09-19T06:40:41;99618.16;;;17.41;100.00
28310;BME280;15571;50.974;13.936;2023-09-19T06:43:46;99622.34;;;17.47;100.00
28310;BME280;15571;50.974;13.936;2023-09-19T06:46:48;99612.56;;;17.49;100.00
28310;BME280;15571;50.974;13.936;2023-09-19T06:49:51;99617.72;;;17.52;100.00
28310;BME280;15571;50.974;13.936;2023-09-19T06:52:54;99629.03;;;17.56;100.00
28310;BME280;15571;50.974;13.936;2023-09-19T06:55:59;99630.75;;;17.57;100.00
28310;BME280;15571;50.974;13.936;2023-09-19T06:59:01;99642.78;;;17.64;100.00
28310;BME280;15571;50.974;13.936;2023-09-19T07:02:04;99635.56;;;17.68;100.00
28310;BME280;15571;50.974;13.936;2023-09-19T07:05:12;99636.22;;;17.73;100.00
28310;BME280;15571;50.974;13.936;2023-09-19T07:08:14;99641.09;;;17.82;100.00
28310;BME280;15571;50.974;13.936;2023-09-19T07:11:17;99651.41;;;17.88;100.00
28310;BME280;15571;50.974;13.936;2023-09-19T07:14:20;99654.84;;;17.91;100.00
28310;BME280;15571;50.974;13.936;2023-09-19T07:17:30;99663.44;;;17.96;100.00
28310;BME280;15571;50.974;13.936;2023-09-19T07:20:33;99675.50;;;18.03;100.00
28310;BME280;15571;50.974;13.936;2023-09-19T07:23:35;99668.63;;;18.18;100.00
28310;BME280;15571;50.974;13.936;2023-09-19T07:26:40;99668.53;;;18.40;100.00
28310;BME280;15571;50.974;13.936;2023-09-19T07:29:42;99673.38;;;18.49;100.00
28310;BME280;15571;50.974;13.936;2023-09-19T07:32:43;99667.69;;;18.57;100.00
28310;BME280;15571;50.974;13.936;2023-09-19T07:35:45;99666.09;;;18.72;100.00
28310;BME280;15571;50.974;13.936;2023-09-19T07:38:47;99670.69;;;18.69;100.00
28310;BME280;15571;50.974;13.936;2023-09-19T07:41:51;99676.22;;;18.83;100.00
28310;BME280;15571;50.974;13.936;2023-09-19T07:44:54;99680.78;;;18.98;100.00
28310;BME280;15571;50.974;13.936;2023-09-19T07:47:56;99690.09;;;19.07;100.00
28310;BME280;15571;50.974;13.936;2023-09-19T07:51:01;99700.84;;;19.04;100.00
28310;BME280;15571;50.974;13.936;2023-09-19T07:54:03;99703.50;;;19.04;100.00
28310;BME280;15571;50.974;13.936;2023-09-19T07:57:06;99704.19;;;19.08;100.00
28310;BME280;15571;50.974;13.936;2023-09-19T08:00:09;99707.41;;;18.97;100.00
28310;BME280;15571;50.974;13.936;2023-09-19T08:03:12;99708.59;;;18.90;100.00
28310;BME280;15571;50.974;13.936;2023-09-19T08:06:15;99710.19;;;18.75;100.00
28310;BME280;15571;50.974;13.936;2023-09-19T08:09:17;99718.63;;;18.83;100.00
28310;BME280;15571;50.974;13.936;2023-09-19T08:12:22;99712.75;;;18.76;100.00
28310;BME280;15571;50.974;13.936;2023-09-19T08:15:24;99707.75;;;18.70;100.00
28310;BME280;15571;50.974;13.936;2023-09-19T08:18:30;99705.81;;;18.74;100.00
28310;BME280;15571;50.974;13.936;2023-09-19T08:21:32;99701.28;;;18.95;100.00
28310;BME280;15571;50.974;13.936;2023-09-19T08:24:33;99706.09;;;18.87;100.00
28310;BME280;15571;50.974;13.936;2023-09-19T08:27:37;99704.66;;;18.98;100.00
28310;BME280;15571;50.974;13.936;2023-09-19T08:30:39;99710.97;;;18.96;100.00
28310;BME280;15571;50.974;13.936;2023-09-19T08:33:42;99719.28;;;19.07;100.00
28310;BME280;15571;50.974;13.936;2023-09-19T08:36:45;99717.78;;;19.02;100.00
28310;BME280;15571;50.974;13.936;2023-09-19T08:39:48;99721.50;;;18.97;100.00
28310;BME280;15571;50.974;13.936;2023-09-19T08:42:55;99722.94;;;19.05;100.00
28310;BME280;15571;50.974;13.936;2023-09-19T08:45:58;99726.00;;;19.15;100.00
28310;BME280;15571;50.974;13.936;2023-09-19T08:49:05;99729.13;;;19.40;100.00
28310;BME280;15571;50.974;13.936;2023-09-19T08:52:20;99723.13;;;19.37;100.00
28310;BME280;15571;50.974;13.936;2023-09-19T08:55:26;99723.06;;;19.56;100.00
28310;BME280;15571;50.974;13.936;2023-09-19T08:58:32;99729.06;;;19.59;100.00
28310;BME280;15571;50.974;13.936;2023-09-19T09:01:36;99736.34;;;19.73;100.00
28310;BME280;15571;50.974;13.936;2023-09-19T09:04:42;99729.16;;;19.93;100.00
28310;BME280;15571;50.974;13.936;2023-09-19T09:07:47;99734.81;;;19.87;100.00
28310;BME280;15571;50.974;13.936;2023-09-19T09:10:50;99742.44;;;19.93;100.00
28310;BME280;15571;50.974;13.936;2023-09-19T09:13:55;99736.88;;;19.98;100.00
28310;BME280;15571;50.974;13.936;2023-09-19T09:17:00;99741.59;;;19.93;100.00
28310;BME280;15571;50.974;13.936;2023-09-19T09:20:03;99734.38;;;19.95;100.00
28310;BME280;15571;50.974;13.936;2023-09-19T09:23:08;99743.91;;;19.81;100.00
28310;BME280;15571;50.974;13.936;2023-09-19T09:26:10;99745.38;;;19.69;100.00
28310;BME280;15571;50.974;13.936;2023-09-19T09:29:14;99742.34;;;19.77;100.00
28310;BME280;15571;50.974;13.936;2023-09-19T09:32:16;99739.00;;;19.91;100.00
28310;BME280;15571;50.974;13.936;2023-09-19T09:35:20;99742.09;;;19.99;100.00
28310;BME280;15571;50.974;13.936;2023-09-19T09:38:27;99741.97;;;20.02;100.00
28310;BME280;15571;50.974;13.936;2023-09-19T09:41:36;99748.59;;;19.94;100.00
28310;BME280;15571;50.974;13.936;2023-09-19T09:44:41;99739.25;;;20.20;100.00
28310;BME280;15571;50.974;13.936;2023-09-19T09:47:45;99741.06;;;20.19;100.00
28310;BME280;15571;50.974;13.936;2023-09-19T09:50:57;99741.53;;;20.44;100.00
28310;BME280;15571;50.974;13.936;2023-09-19T09:54:09;99740.88;;;20.56;100.00
28310;BME280;15571;50.974;13.936;2023-09-19T09:57:12;99744.66;;;20.52;100.00
28310;BME280;15571;50.974;13.936;2023-09-19T10:00:23;99740.19;;;20.68;100.00
28310;BME280;15571;50.974;13.936;2023-09-19T10:03:42;99756.66;;;20.59;100.00
28310;BME280;15571;50.974;13.936;2023-09-19T10:06:52;99757.16;;;20.50;100.00
28310;BME280;15571;50.974;13.936;2023-09-19T10:09:54;99756.06;;;20.20;100.00
28310;BME280;15571;50.974;13.936;2023-09-19T10:13:07;99758.72;;;20.20;100.00
28310;BME280;15571;50.974;13.936;2023-09-19T10:16:14;99761.19;;;20.08;100.00
28310;BME280;15571;50.974;13.936;2023-09-19T10:19:20;99757.41;;;20.12;100.00
28310;BME280;15571;50.974;13.936;2023-09-19T10:22:26;99756.03;;;20.04;100.00
28310;BME280;15571;50.974;13.936;2023-09-19T10:25:31;99759.28;;;20.10;100.00
28310;BME280;15571;50.974;13.936;2023-09-19T10:28:33;99754.75;;;20.12;100.00
28310;BME280;15571;50.974;13.936;2023-09-19T10:31:38;99761.19;;;20.08;100.00
28310;BME280;15571;50.974;13.936;2023-09-19T10:34:44;99756.47;;;20.13;100.00
28310;BME280;15571;50.974;13.936;2023-09-19T10:37:48;99754.97;;;20.25;100.00
28310;BME280;15571;50.974;13.936;2023-09-19T10:40:55;99744.25;;;20.26;100.00
28310;BME280;15571;50.974;13.936;2023-09-19T10:44:01;99755.63;;;20.46;100.00
28310;BME280;15571;50.974;13.936;2023-09-19T10:47:06;99754.69;;;20.63;100.00
28310;BME280;15571;50.974;13.936;2023-09-19T10:50:12;99747.78;;;20.92;100.00
28310;BME280;15571;50.974;13.936;2023-09-19T10:53:23;99744.34;;;21.06;100.00
28310;BME280;15571;50.974;13.936;2023-09-19T10:56:26;99740.63;;;21.25;100.00
28310;BME280;15571;50.974;13.936;2023-09-19T10:59:28;99746.09;;;21.38;100.00
28310;BME280;15571;50.974;13.936;2023-09-19T11:02:36;99747.22;;;21.34;100.00
28310;BME280;15571;50.974;13.936;2023-09-19T11:05:43;99749.47;;;21.25;100.00
28310;BME280;15571;50.974;13.936;2023-09-19T11:08:55;99746.03;;;21.23;100.00
28310;BME280;15571;50.974;13.936;2023-09-19T11:12:07;99746.22;;;21.20;100.00
28310;BME280;15571;50.974;13.936;2023-09-19T11:16:02;99742.25;;;21.27;100.00
28310;BME280;15571;50.974;13.936;2023-09-19T11:18:55;99744.19;;;21.40;100.00
28310;BME280;15571;50.974;13.936;2023-09-19T11:21:58;99749.28;;;21.28;100.00
28310;BME280;15571;50.974;13.936;2023-09-19T11:25:14;99745.16;;;21.39;100.00
28310;BME280;15571;50.974;13.936;2023-09-19T11:28:44;99741.63;;;21.38;100.00
28310;BME280;15571;50.974;13.936;2023-09-19T11:31:47;99749.97;;;21.32;100.00
28310;BME280;15571;50.974;13.936;2023-09-19T11:34:51;99745.91;;;21.41;100.00
28310;BME280;15571;50.974;13.936;2023-09-19T11:38:02;99746.38;;;21.17;100.00
28310;BME280;15571;50.974;13.936;2023-09-19T11:41:37;99741.56;;;21.24;100.00
28310;BME280;15571;50.974;13.936;2023-09-19T11:44:39;99740.97;;;21.35;100.00
28310;BME280;15571;50.974;13.936;2023-09-19T11:47:41;99734.16;;;21.45;100.00
28310;BME280;15571;50.974;13.936;2023-09-19T11:50:45;99746.94;;;21.54;100.00
28310;BME280;15571;50.974;13.936;2023-09-19T11:53:48;99741.25;;;21.60;100.00
28310;BME280;15571;50.974;13.936;2023-09-19T11:56:50;99748.69;;;21.70;100.00
28310;BME280;15571;50.974;13.936;2023-09-19T11:59:54;99748.88;;;21.67;100.00
28310;BME280;15571;50.974;13.936;2023-09-19T12:02:56;99748.31;;;21.76;100.00
28310;BME280;15571;50.974;13.936;2023-09-19T12:06:11;99734.06;;;21.77;100.00
28310;BME280;15571;50.974;13.936;2023-09-19T12:09:15;99745.69;;;21.90;100.00
28310;BME280;15571;50.974;13.936;2023-09-19T12:12:19;99740.19;;;21.94;100.00
28310;BME280;15571;50.974;13.936;2023-09-19T12:15:24;99736.75;;;21.91;100.00
28310;BME280;15571;50.974;13.936;2023-09-19T12:18:29;99735.31;;;22.00;100.00
28310;BME280;15571;50.974;13.936;2023-09-19T12:21:32;99734.28;;;21.88;100.00
28310;BME280;15571;50.974;13.936;2023-09-19T12:24:37;99737.25;;;21.98;100.00
28310;BME280;15571;50.974;13.936;2023-09-19T12:27:46;99733.72;;;21.83;100.00
28310;BME280;15571;50.974;13.936;2023-09-19T12:30:48;99728.94;;;21.88;100.00
28310;BME280;15571;50.974;13.936;2023-09-19T12:33:55;99725.91;;;21.95;100.00
28310;BME280;15571;50.974;13.936;2023-09-19T12:37:05;99730.69;;;22.04;100.00
28310;BME280;15571;50.974;13.936;2023-09-19T12:40:14;99725.06;;;21.94;100.00
28310;BME280;15571;50.974;13.936;2023-09-19T12:43:22;99724.59;;;22.02;100.00
28310;BME280;15571;50.974;13.936;2023-09-19T12:46:24;99712.22;;;22.01;100.00
28310;BME280;15571;50.974;13.936;2023-09-19T12:49:26;99723.81;;;22.29;100.00
28310;BME280;15571;50.974;13.936;2023-09-19T12:52:35;99722.13;;;22.28;100.00
28310;BME280;15571;50.974;13.936;2023-09-19T12:55:39;99721.53;;;22.37;100.00
28310;BME280;15571;50.974;13.936;2023-09-19T12:58:49;99724.59;;;22.45;100.00
28310;BME280;15571;50.974;13.936;2023-09-19T13:01:51;99728.22;;;22.44;100.00
28310;BME280;15571;50.974;13.936;2023-09-19T13:05:06;99729.81;;;22.32;100.00
28310;BME280;15571;50.974;13.936;2023-09-19T13:08:18;99726.22;;;22.19;100.00
28310;BME280;15571;50.974;13.936;2023-09-19T13:11:21;99726.88;;;22.22;100.00
28310;BME280;15571;50.974;13.936;2023-09-19T13:14:23;99726.88;;;22.08;100.00
28310;BME280;15571;50.974;13.936;2023-09-19T13:17:35;99731.44;;;22.20;100.00
28310;BME280;15571;50.974;13.936;2023-09-19T13:20:44;99730.31;;;22.10;100.00
28310;BME280;15571;50.974;13.936;2023-09-19T13:24:19;99727.91;;;22.05;100.00
28310;BME280;15571;50.974;13.936;2023-09-19T13:27:21;99729.31;;;21.97;100.00
28310;BME280;15571;50.974;13.936;2023-09-19T13:30:23;99725.72;;;21.98;100.00
28310;BME280;15571;50.974;13.936;2023-09-19T13:33:26;99724.19;;;22.08;100.00
28310;BME280;15571;50.974;13.936;2023-09-19T13:36:28;99720.97;;;22.03;100.00
28310;BME280;15571;50.974;13.936;2023-09-19T13:39:31;99723.72;;;22.01;100.00
28310;BME280;15571;50.974;13.936;2023-09-19T13:42:33;99718.50;;;22.00;100.00
28310;BME280;15571;50.974;13.936;2023-09-19T13:45:36;99718.31;;;22.03;100.00
28310;BME280;15571;50.974;13.936;2023-09-19T13:48:38;99723.38;;;22.07;100.00
28310;BME280;15571;50.974;13.936;2023-09-19T13:51:40;99719.06;;;22.05;100.00
28310;BME280;15571;50.974;13.936;2023-09-19T13:54:51;99723.81;;;22.14;100.00
28310;BME280;15571;50.974;13.936;2023-09-19T13:57:59;99716.22;;;22.22;100.00
28310;BME280;15571;50.974;13.936;2023-09-19T14:01:01;99716.03;;;22.11;100.00
28310;BME280;15571;50.974;13.936;2023-09-19T14:04:04;99720.03;;;22.18;100.00
28310;BME280;15571;50.974;13.936;2023-09-19T14:07:06;99726.69;;;22.11;100.00
28310;BME280;15571;50.974;13.936;2023-09-19T14:10:10;99713.53;;;22.08;100.00
28310;BME280;15571;50.974;13.936;2023-09-19T14:13:12;99717.81;;;22.11;96.66
28310;BME280;15571;50.974;13.936;2023-09-19T14:16:19;99720.59;;;22.09;95.90
28310;BME280;15571;50.974;13.936;2023-09-19T14:19:22;99714.69;;;22.04;99.19
28310;BME280;15571;50.974;13.936;2023-09-19T14:22:27;99718.97;;;22.06;98.37
28310;BME280;15571;50.974;13.936;2023-09-19T14:25:35;99716.88;;;21.97;99.43
28310;BME280;15571;50.974;13.936;2023-09-19T14:28:36;99722.69;;;22.18;95.62
28310;BME280;15571;50.974;13.936;2023-09-19T14:31:42;99713.81;;;22.03;98.81
28310;BME280;15571;50.974;13.936;2023-09-19T14:34:44;99708.00;;;21.97;100.00
28310;BME280;15571;50.974;13.936;2023-09-19T14:37:46;99706.56;;;21.91;100.00
28310;BME280;15571;50.974;13.936;2023-09-19T14:41:00;99712.78;;;21.91;100.00
28310;BME280;15571;50.974;13.936;2023-09-19T14:44:05;99713.91;;;21.87;100.00
28310;BME280;15571;50.974;13.936;2023-09-19T14:47:07;99715.63;;;21.88;100.00
28310;BME280;15571;50.974;13.936;2023-09-19T14:50:09;99715.06;;;21.98;100.00
28310;BME280;15571;50.974;13.936;2023-09-19T14:53:28;99708.81;;;22.13;97.99
28310;BME280;15571;50.974;13.936;2023-09-19T14:56:35;99717.09;;;22.08;96.98
28310;BME280;15571;50.974;13.936;2023-09-19T14:59:37;99712.78;;;22.06;95.57
28310;BME280;15571;50.974;13.936;2023-09-19T15:02:40;99697.75;;;21.90;97.33
28310;BME280;15571;50.974;13.936;2023-09-19T15:05:45;99708.69;;;21.86;99.72
28310;BME280;15571;50.974;13.936;2023-09-19T15:08:47;99711.41;;;21.70;100.00
28310;BME280;15571;50.974;13.936;2023-09-19T15:11:55;99706.53;;;21.62;100.00
28310;BME280;15571;50.974;13.936;2023-09-19T15:14:57;99702.84;;;21.65;100.00
28310;BME280;15571;50.974;13.936;2023-09-19T15:17:59;99706.47;;;21.64;100.00
28310;BME280;15571;50.974;13.936;2023-09-19T15:21:01;99699.03;;;21.69;100.00
28310;BME280;15571;50.974;13.936;2023-09-19T15:24:04;99693.88;;;21.66;100.00
28310;BME280;15571;50.974;13.936;2023-09-19T15:27:11;99701.44;;;21.57;100.00
28310;BME280;15571;50.974;13.936;2023-09-19T15:30:13;99694.16;;;21.61;100.00
28310;BME280;15571;50.974;13.936;2023-09-19T15:33:23;99701.66;;;21.54;100.00
28310;BME280;15571;50.974;13.936;2023-09-19T15:36:25;99703.53;;;21.52;100.00
28310;BME280;15571;50.974;13.936;2023-09-19T15:39:30;99693.25;;;21.46;100.00
28310;BME280;15571;50.974;13.936;2023-09-19T15:42:35;99699.44;;;21.46;100.00
28310;BME280;15571;50.974;13.936;2023-09-19T15:45:39;99692.78;;;21.39;100.00
28310;BME280;15571;50.974;13.936;2023-09-19T15:48:42;99701.03;;;21.35;100.00
28310;BME280;15571;50.974;13.936;2023-09-19T15:51:44;99704.91;;;21.59;100.00
28310;BME280;15571;50.974;13.936;2023-09-19T15:54:54;99705.97;;;21.41;100.00
28310;BME280;15571;50.974;13.936;2023-09-19T15:57:58;99704.44;;;21.37;100.00
28310;BME280;15571;50.974;13.936;2023-09-19T16:01:03;99698.91;;;21.25;100.00